Luhe — 3FVZ6 — position and weather

sailwx.info

Track history (hours):
 
Tides and Currents Weather Stations Pressure Air Temp Water Temp Dewpoint Dewpoint Depression Visibility Wind Speed Wind Dir Waves Ship Positions

Luhe

Last reported at 2014-Oct-29 20:26 UTC. Time now 2014-Nov-01 06:19 UTC.
Position S 26°05' E 153°29'.

Length 280 m; draft 11.9 m.

Type: Cargo ship. MMSI: 354812000.

Date/timePositionNaut miles runAvg speedWind from/ knotsBaromVisibWave heightAir tempDewpointWater temp
2014-Oct-29 20:26S 26°05' E 153°29'1617.2
2014-Oct-29 19:31S 26°20' E 153°23'1717.3
2014-Oct-29 18:33S 26°35' E 153°16'1514.6
2014-Oct-29 17:33S 26°49' E 153°10'1514.8
2014-Oct-29 16:33S 27°03' E 153°16'1313.2
2014-Oct-29 15:33S 27°16' E 153°17'8 8.0
2014-Oct-29 14:33S 27°22' E 153°11'0 0.1
2014-Oct-29 13:31S 27°22' E 153°11'0 0.0
2014-Oct-29 12:31S 27°22' E 153°11'0 0.0
2014-Oct-29 11:31S 27°22' E 153°11'0 0.0
2014-Oct-29 10:31S 27°22' E 153°11'0 0.0
2014-Oct-29 09:31S 27°22' E 153°11'0 0.0
2014-Oct-29 08:31S 27°22' E 153°11'0 0.0
2014-Oct-29 07:31S 27°22' E 153°11'0 0.0
2014-Oct-29 06:31S 27°22' E 153°11'0 0.0
2014-Oct-29 05:31S 27°22' E 153°11'0 0.0
2014-Oct-29 04:31S 27°22' E 153°11'0 0.0
2014-Oct-29 03:31S 27°22' E 153°11'0 0.0
2014-Oct-29 02:31S 27°22' E 153°11'0 0.0
2014-Oct-29 01:31S 27°22' E 153°11'0 0.0
2014-Oct-29 00:31S 27°22' E 153°11'0 0.0
2014-Oct-28 23:31S 27°22' E 153°11'0 0.0
2014-Oct-28 22:31S 27°22' E 153°11'0 0.0
2014-Oct-28 21:31S 27°22' E 153°11'0 0.0
2014-Oct-28 20:31S 27°22' E 153°11'0 0.0
2014-Oct-28 19:31S 27°22' E 153°11'0 0.0
2014-Oct-28 18:31S 27°22' E 153°11'0 0.0
2014-Oct-28 17:31S 27°22' E 153°11'0 0.0
2014-Oct-28 16:31S 27°22' E 153°11'0 0.0
2014-Oct-28 15:31S 27°22' E 153°11'0 0.0
2014-Oct-28 14:31S 27°22' E 153°11'0 0.0
2014-Oct-28 13:31S 27°22' E 153°11'0 0.0
2014-Oct-28 12:31S 27°22' E 153°11'1 1.3
2014-Oct-28 11:33S 27°21' E 153°11'1413.9
2014-Oct-28 10:33S 27°10' E 153°21'1615.6
2014-Oct-28 09:33S 26°56' E 153°12'1212.3
2014-Oct-28 08:34S 26°44' E 153°11'1110.9
2014-Oct-28 07:33S 26°49' E 153°22'1717.2
2014-Oct-28 06:34S 27°00' E 153°36'1716.6
2014-Oct-28 05:34S 27°17' E 153°39'1616.1
2014-Oct-28 04:33S 27°33' E 153°41'1615.9
2014-Oct-28 03:34S 27°48' E 153°42'1616.1
2014-Oct-28 02:34S 28°04' E 153°44'1615.7
2014-Oct-28 01:33S 28°20' E 153°45'22016.7
2014-Oct-27 12:22S 31°57' E 153°01'1316.6
2014-Oct-27 11:34S 32°09' E 152°56'1716.9
2014-Oct-27 10:33S 32°26' E 152°51'1716.9
2014-Oct-27 09:34S 32°41' E 152°43'1716.8
2014-Oct-27 08:33S 32°57' E 152°36'1716.7
2014-Oct-27 07:34S 33°12' E 152°28'1716.6
2014-Oct-27 06:33S 33°27' E 152°20'1716.6
2014-Oct-27 05:34S 33°43' E 152°12'1616.4
2014-Oct-27 04:34S 33°57' E 152°04'1616.1
2014-Oct-27 03:32S 34°13' E 151°56'1815.7
2014-Oct-27 02:25S 34°29' E 151°47'18216.6
2014-Oct-26 15:28S 37°15' E 150°17'1617.2
2014-Oct-26 14:33S 37°29' E 150°09'1716.8
2014-Oct-26 13:33S 37°45' E 149°60'1717.4
2014-Oct-26 12:34S 37°55' E 149°43'1817.4
2014-Oct-26 11:32S 38°06' E 149°25'2317.3
2014-Oct-26 10:13S 38°20' E 149°02'1117.1
2014-Oct-26 09:34S 38°27' E 148°50'1917.5
2014-Oct-26 08:27S 38°38' E 148°31'1617.9
2014-Oct-26 07:32S 38°47' E 148°13'1818.5
2014-Oct-26 06:33S 38°54' E 147°51'1918.7
2014-Oct-26 05:34S 39°01' E 147°29'1918.5
2014-Oct-26 04:33S 39°06' E 147°07'1818.0
2014-Oct-26 03:33S 39°13' E 146°45'1817.6
2014-Oct-26 02:33S 39°16' E 146°22'1717.2
2014-Oct-26 01:34S 39°10' E 146°02'1817.9
2014-Oct-26 00:34S 39°00' E 145°42'1918.0
2014-Oct-25 23:29S 38°50' E 145°22'1918.1
2014-Oct-25 22:26S 38°39' E 145°01'2017.8
2014-Oct-25 21:20S 38°27' E 144°42'  
2014-Oct-23 10:33S 39°04' E 145°58'1817.7
2014-Oct-23 09:33S 39°12' E 146°19'1918.6
2014-Oct-23 08:33S 39°06' E 146°41'1818.2
2014-Oct-23 07:33S 39°00' E 147°04'1817.9
2014-Oct-23 06:33S 38°55' E 147°26'7617.6
2014-Oct-23 02:14S 38°24' E 148°54'1217.8
2014-Oct-23 01:33S 38°17' E 149°07'1917.7
2014-Oct-23 00:28S 38°05' E 149°26'1718.2
2014-Oct-22 23:33S 37°55' E 149°43'1818.5
2014-Oct-22 22:33S 37°43' E 150°01'1919.0
2014-Oct-22 21:33S 37°25' E 150°09'1918.9
2014-Oct-22 20:32S 37°07' E 150°17'194 9.2
2014-Oct-21 23:29S 33°58' E 151°13'0 0.0
2014-Oct-21 22:32S 33°58' E 151°13'  
Track history (hours):
 
Tides and Currents Weather Stations Pressure Air Temp Water Temp Dewpoint Dewpoint Depression Visibility Wind Speed Wind Dir Waves Ship Positions

Luhe

Last reported at 2014-Oct-29 20:26 UTC. Time now 2014-Nov-01 06:19 UTC.
Position S 26°05' E 153°29'.

Length 280 m; draft 11.9 m.

Type: Cargo ship. MMSI: 354812000.

Date/timePositionNaut miles runAvg speedWind from/ knotsBaromVisibWave heightAir tempDewpointWater temp
2014-Oct-29 20:26S 26°05' E 153°29'1617.2
2014-Oct-29 19:31S 26°20' E 153°23'1717.3
2014-Oct-29 18:33S 26°35' E 153°16'1514.6
2014-Oct-29 17:33S 26°49' E 153°10'1514.8
2014-Oct-29 16:33S 27°03' E 153°16'1313.2
2014-Oct-29 15:33S 27°16' E 153°17'8 8.0
2014-Oct-29 14:33S 27°22' E 153°11'0 0.1
2014-Oct-29 13:31S 27°22' E 153°11'0 0.0
2014-Oct-29 12:31S 27°22' E 153°11'0 0.0
2014-Oct-29 11:31S 27°22' E 153°11'0 0.0
2014-Oct-29 10:31S 27°22' E 153°11'0 0.0
2014-Oct-29 09:31S 27°22' E 153°11'0 0.0
2014-Oct-29 08:31S 27°22' E 153°11'0 0.0
2014-Oct-29 07:31S 27°22' E 153°11'0 0.0
2014-Oct-29 06:31S 27°22' E 153°11'0 0.0
2014-Oct-29 05:31S 27°22' E 153°11'0 0.0
2014-Oct-29 04:31S 27°22' E 153°11'0 0.0
2014-Oct-29 03:31S 27°22' E 153°11'0 0.0
2014-Oct-29 02:31S 27°22' E 153°11'0 0.0
2014-Oct-29 01:31S 27°22' E 153°11'0 0.0
2014-Oct-29 00:31S 27°22' E 153°11'0 0.0
2014-Oct-28 23:31S 27°22' E 153°11'0 0.0
2014-Oct-28 22:31S 27°22' E 153°11'0 0.0
2014-Oct-28 21:31S 27°22' E 153°11'0 0.0
2014-Oct-28 20:31S 27°22' E 153°11'0 0.0
2014-Oct-28 19:31S 27°22' E 153°11'0 0.0
2014-Oct-28 18:31S 27°22' E 153°11'0 0.0
2014-Oct-28 17:31S 27°22' E 153°11'0 0.0
2014-Oct-28 16:31S 27°22' E 153°11'0 0.0
2014-Oct-28 15:31S 27°22' E 153°11'0 0.0
2014-Oct-28 14:31S 27°22' E 153°11'0 0.0
2014-Oct-28 13:31S 27°22' E 153°11'0 0.0
2014-Oct-28 12:31S 27°22' E 153°11'1 1.3
2014-Oct-28 11:33S 27°21' E 153°11'1413.9
2014-Oct-28 10:33S 27°10' E 153°21'1615.6
2014-Oct-28 09:33S 26°56' E 153°12'1212.3
2014-Oct-28 08:34S 26°44' E 153°11'1110.9
2014-Oct-28 07:33S 26°49' E 153°22'1717.2
2014-Oct-28 06:34S 27°00' E 153°36'1716.6
2014-Oct-28 05:34S 27°17' E 153°39'1616.1
2014-Oct-28 04:33S 27°33' E 153°41'1615.9
2014-Oct-28 03:34S 27°48' E 153°42'1616.1
2014-Oct-28 02:34S 28°04' E 153°44'1615.7
2014-Oct-28 01:33S 28°20' E 153°45'22016.7
2014-Oct-27 12:22S 31°57' E 153°01'1316.6
2014-Oct-27 11:34S 32°09' E 152°56'1716.9
2014-Oct-27 10:33S 32°26' E 152°51'1716.9
2014-Oct-27 09:34S 32°41' E 152°43'1716.8
2014-Oct-27 08:33S 32°57' E 152°36'1716.7
2014-Oct-27 07:34S 33°12' E 152°28'1716.6
2014-Oct-27 06:33S 33°27' E 152°20'1716.6
2014-Oct-27 05:34S 33°43' E 152°12'1616.4
2014-Oct-27 04:34S 33°57' E 152°04'1616.1
2014-Oct-27 03:32S 34°13' E 151°56'1815.7
2014-Oct-27 02:25S 34°29' E 151°47'18216.6
2014-Oct-26 15:28S 37°15' E 150°17'1617.2
2014-Oct-26 14:33S 37°29' E 150°09'1716.8
2014-Oct-26 13:33S 37°45' E 149°60'1717.4
2014-Oct-26 12:34S 37°55' E 149°43'1817.4
2014-Oct-26 11:32S 38°06' E 149°25'2317.3
2014-Oct-26 10:13S 38°20' E 149°02'1117.1
2014-Oct-26 09:34S 38°27' E 148°50'1917.5
2014-Oct-26 08:27S 38°38' E 148°31'1617.9
2014-Oct-26 07:32S 38°47' E 148°13'1818.5
2014-Oct-26 06:33S 38°54' E 147°51'1918.7
2014-Oct-26 05:34S 39°01' E 147°29'1918.5
2014-Oct-26 04:33S 39°06' E 147°07'1818.0
2014-Oct-26 03:33S 39°13' E 146°45'1817.6
2014-Oct-26 02:33S 39°16' E 146°22'1717.2
2014-Oct-26 01:34S 39°10' E 146°02'1817.9
2014-Oct-26 00:34S 39°00' E 145°42'1918.0
2014-Oct-25 23:29S 38°50' E 145°22'1918.1
2014-Oct-25 22:26S 38°39' E 145°01'2017.8
2014-Oct-25 21:20S 38°27' E 144°42'  
2014-Oct-23 10:33S 39°04' E 145°58'1817.7
2014-Oct-23 09:33S 39°12' E 146°19'1918.6
2014-Oct-23 08:33S 39°06' E 146°41'1818.2
2014-Oct-23 07:33S 39°00' E 147°04'1817.9
2014-Oct-23 06:33S 38°55' E 147°26'7617.6
2014-Oct-23 02:14S 38°24' E 148°54'1217.8
2014-Oct-23 01:33S 38°17' E 149°07'1917.7
2014-Oct-23 00:28S 38°05' E 149°26'1718.2
2014-Oct-22 23:33S 37°55' E 149°43'1818.5
2014-Oct-22 22:33S 37°43' E 150°01'1919.0
2014-Oct-22 21:33S 37°25' E 150°09'1918.9
2014-Oct-22 20:32S 37°07' E 150°17'194 9.2
2014-Oct-21 23:29S 33°58' E 151°13'0 0.0
2014-Oct-21 22:32S 33°58' E 151°13'  

Dump ship's entire track history